Time;durP1;ratioP1;P1;durP2;ratioP2;P2;SDS_P1;SDS_P2;PMS_P1;PMS_P2;Temp;Humidity;BMP_temperature;BMP_pressure;BME280_temperature;BME280_humidity;BME280_pressure;Samples;Min_cycle;Max_cycle;Signal;HPM_P1;HPM_P2
2022/09/07 00:02:05;;;;;;;13.33;3.37;;;;;;;19.16;85.00;66210.19;5116587;28;20205;-75
2022/09/07 00:04:31;;;;;;;6.93;3.57;;;;;;;18.61;91.29;66157.75;5116204;28;20619;-75
2022/09/07 00:06:57;;;;;;;18.73;3.70;;;;;;;18.34;96.10;66126.09;5116054;28;20217;-74
2022/09/07 00:09:24;;;;;;;2.33;2.30;;;;;;;17.67;100.00;66049.25;5116144;28;20220;-74
2022/09/07 00:11:50;;;;;;;3.13;2.70;;;;;;;17.19;100.00;66007.34;5115944;28;20242;-75
2022/09/07 00:14:17;;;;;;;3.50;3.30;;;;;;;17.00;100.00;65982.03;5116004;28;20217;-74
2022/09/07 00:16:43;;;;;;;8.60;3.13;;;;;;;16.93;100.00;65974.22;5115854;28;20241;-74
2022/09/07 00:19:09;;;;;;;12.30;2.80;;;;;;;16.88;100.00;65983.81;5115900;28;20689;-75
2022/09/07 00:21:36;;;;;;;3.17;2.97;;;;;;;16.74;100.00;65955.66;5115882;28;20213;-75
2022/09/07 00:24:03;;;;;;;3.37;3.10;;;;;;;16.60;100.00;65934.78;5115901;28;20616;-75
2022/09/07 00:26:29;;;;;;;3.23;3.03;;;;;;;;;;5115749;28;20185;-75
2022/09/07 00:28:58;;;;;;;3.00;3.00;;;;;;;16.41;100.00;65914.72;5097472;28;20214;-76
2022/09/07 00:31:25;;;;;;;3.33;3.20;;;;;;;16.39;100.00;65922.44;5115690;28;20213;-75
2022/09/07 00:33:53;;;;;;;2.00;2.00;;;;;;;16.19;100.00;65887.59;5116013;28;20181;-75
2022/09/07 00:36:21;;;;;;;2.53;2.50;;;;;;;16.14;100.00;65879.41;5115855;28;20654;-75
2022/09/07 00:38:48;;;;;;;2.77;2.77;;;;;;;16.09;100.00;65877.03;5115521;28;20228;-75
2022/09/07 00:41:15;;;;;;;10.67;3.00;;;;;;;16.04;100.00;65876.13;5115522;28;20718;-75
2022/09/07 00:43:45;;;;;;;2.87;2.80;;;;;;;16.07;100.00;65874.22;5115783;28;20272;-75
2022/09/07 00:46:20;;;;;;;2.40;2.40;;;;;;;16.17;100.00;65885.94;5115768;28;20619;-75
2022/09/07 00:49:01;;;;;;;2.47;2.37;;;;;;;16.05;100.00;65883.03;5115877;28;20295;-74
2022/09/07 00:51:34;;;;;;;5.40;3.13;;;;;;;15.92;100.00;65863.31;5115671;28;20205;-75
2022/09/07 00:54:06;;;;;;;2.57;2.53;;;;;;;15.78;100.00;65847.72;5115611;28;20197;-75
2022/09/07 00:56:38;;;;;;;2.73;2.60;;;;;;;15.76;100.00;65846.06;5115459;28;20209;-76
2022/09/07 00:59:06;;;;;;;2.33;2.33;;;;;;;15.69;100.00;65840.88;5115500;28;20169;-76
2022/09/07 01:01:33;;;;;;;2.57;2.57;;;;;;;15.70;100.00;65839.38;5115412;28;20686;-77
2022/09/07 01:04:01;;;;;;;2.17;2.17;;;;;;;15.60;100.00;65828.22;5115313;28;20267;-77
2022/09/07 01:06:34;;;;;;;3.00;2.90;;;;;;;15.52;100.00;65814.66;5115009;28;20189;-77
2022/09/07 01:09:05;;;;;;;2.50;2.40;;;;;;;15.56;100.00;65816.47;5115693;28;20231;-77
2022/09/07 01:11:33;;;;;;;2.93;2.27;;;;;;;15.58;100.00;65828.63;5115312;28;20229;-77
2022/09/07 01:14:02;;;;;;;2.37;2.37;;;;;;;15.54;100.00;65816.88;5115265;28;20205;-77
2022/09/07 01:16:58;;;;;;;12.33;2.70;;;;;;;15.53;100.00;65818.38;5116079;28;20190;-78
2022/09/07 01:19:25;;;;;;;3.47;3.27;;;;;;;15.62;100.00;65831.03;5116049;28;20252;-78
2022/09/07 01:21:57;;;;;;;3.13;3.03;;;;;;;15.58;100.00;65836.47;5115610;28;20612;-78
2022/09/07 01:24:37;;;;;;;3.80;2.60;;;;;;;15.55;100.00;65825.28;5116220;28;20197;-78
2022/09/07 01:27:34;;;;;;;3.13;2.93;;;;;;;15.52;100.00;65819.31;5117550;28;20201;-78
2022/09/07 01:30:07;;;;;;;3.37;3.13;;;;;;;15.49;100.00;65819.16;5118511;28;20220;-78
2022/09/07 01:32:45;;;;;;;2.87;2.67;;;;;;;15.41;100.00;65802.94;5119895;28;20208;-79
2022/09/07 01:35:40;;;;;;;2.90;2.80;;;;;;;15.39;100.00;65805.97;5121257;28;20654;-79
2022/09/07 01:38:20;;;;;;;3.07;2.90;;;;;;;15.31;100.00;65791.81;5117481;28;20236;-78
2022/09/07 01:41:08;;;;;;;3.33;3.03;;;;;;;15.17;100.00;65784.09;5115120;28;20209;-77
2022/09/07 01:43:56;;;;;;;2.73;2.60;;;;;;;15.18;100.00;65782.03;5114649;28;20223;-77
2022/09/07 01:46:29;;;;;;;3.17;3.07;;;;;;;15.12;100.00;65776.47;5116760;28;20652;-78
2022/09/07 01:49:03;;;;;;;3.17;3.07;;;;;;;15.15;100.00;65776.63;5116331;28;20292;-78
2022/09/07 01:51:33;;;;;;;3.20;3.00;;;;;;;15.18;100.00;65776.81;5114980;28;20165;-78
2022/09/07 01:54:09;;;;;;;2.30;2.20;;;;;;;15.26;100.00;65791.47;5115849;28;20204;-78
2022/09/07 01:56:41;;;;;;;3.00;2.63;;;;;;;15.26;100.00;65790.94;5116366;28;20207;-78
2022/09/07 01:59:23;;;;;;;4.53;2.70;;;;;;;15.29;100.00;65789.59;5116601;28;20228;-78
2022/09/07 02:02:00;;;;;;;2.77;2.67;;;;;;;15.31;100.00;65791.81;5116767;28;20201;-79
2022/09/07 02:04:33;;;;;;;3.37;3.27;;;;;;;15.24;100.00;65794.50;5114451;28;20222;-78
2022/09/07 02:07:10;;;;;;;3.17;3.07;;;;;;;15.19;100.00;65780.53;5115621;28;20570;-77
2022/09/07 02:09:55;;;;;;;3.03;3.03;;;;;;;15.18;100.00;65779.41;5115005;28;20173;-77
2022/09/07 02:12:40;;;;;;;3.00;2.83;;;;;;;15.13;100.00;65782.78;5115564;28;20199;-79
2022/09/07 02:15:31;;;;;;;2.40;2.30;;;;;;;15.13;100.00;65774.94;5115830;28;20185;-79
2022/09/07 02:18:03;;;;;;;2.27;2.27;;;;;;;15.15;100.00;65776.63;5116562;28;20699;-78
2022/09/07 02:20:36;;;;;;;2.70;2.50;;;;;;;15.14;100.00;65783.94;5115560;28;20216;-78
2022/09/07 02:23:07;;;;;;;2.37;2.27;;;;;;;15.10;100.00;65774.25;5115668;28;20193;-78
2022/09/07 02:25:59;;;;;;;2.67;2.50;;;;;;;15.15;100.00;65774.03;5115910;28;20256;-78
2022/09/07 02:28:29;;;;;;;2.47;2.40;;;;;;;15.15;100.00;65774.03;5115869;28;20237;-78
2022/09/07 02:30:55;;;;;;;2.60;2.40;;;;;;;15.14;100.00;65776.09;5115560;28;20177;-78
2022/09/07 02:33:22;;;;;;;2.63;2.43;;;;;;;15.10;100.00;65766.41;5115500;28;20643;-78
2022/09/07 02:35:50;;;;;;;2.03;1.93;;;;;;;15.10;100.00;65774.25;5114473;28;20216;-78
2022/09/07 02:38:16;;;;;;;2.77;2.67;;;;;;;15.11;100.00;65769.56;5116501;28;20237;-78
2022/09/07 02:40:49;;;;;;;2.27;2.17;;;;;;;15.06;100.00;65761.94;5115072;28;20215;-78
2022/09/07 02:43:16;;;;;;;1.93;1.80;;;;;;;;;;5097168;28;20217;-78
2022/09/07 02:46:00;;;;;;;2.00;2.00;;;;;;;15.15;100.00;65779.25;5114721;28;20181;-78
2022/09/07 02:49:01;;;;;;;3.73;2.00;;;;;;;15.10;100.00;65771.63;5115634;28;20205;-77
2022/09/07 02:51:46;;;;;;;1.97;1.97;;;;;;;15.10;100.00;65771.63;5115484;28;20205;-77
2022/09/07 02:54:40;;;;;;;2.97;2.20;;;;;;;15.06;100.00;65761.94;5114609;28;20204;-77
2022/09/07 02:57:24;;;;;;;2.40;2.33;;;;;;;15.00;100.00;65757.88;5114253;28;20245;-77
2022/09/07 03:00:10;;;;;;;2.00;2.00;;;;;;;14.99;100.00;65754.16;5114413;28;20177;-77
2022/09/07 03:03:16;;;;;;;1.77;1.77;;;;;;;14.98;100.00;65771.34;5114681;28;20538;-77
2022/09/07 03:05:54;;;;;;;2.93;2.43;;;;;;;15.01;100.00;65755.84;5047046;28;20227;-77
2022/09/07 03:08:25;;;;;;;2.40;2.40;;;;;;;15.00;100.00;65757.31;5114023;28;20691;-77
2022/09/07 03:10:52;;;;;;;2.33;2.23;;;;;;;15.01;100.00;65758.44;5114724;28;20193;-77
2022/09/07 03:13:24;;;;;;;5.40;2.97;;;;;;;14.99;100.00;65759.38;5115065;28;20264;-77
2022/09/07 03:15:51;;;;;;;1.67;1.67;;;;;;;;;;5116976;28;20169;-77
2022/09/07 03:18:23;;;;;;;3.00;2.53;;;;;;;14.98;100.00;65755.66;5118759;28;20209;-77
2022/09/07 03:20:49;;;;;;;2.90;2.60;;;;;;;;;;5118702;28;20531;-77
2022/09/07 03:23:16;;;;;;;2.43;2.43;;;;;;;14.82;100.00;65743.06;5118567;28;20200;-77
2022/09/07 03:25:42;;;;;;;2.10;2.10;;;;;;;14.81;100.00;65736.75;5118994;28;20686;-77
2022/09/07 03:28:09;;;;;;;2.43;2.33;;;;;;;14.81;100.00;65737.28;5118713;28;20197;-78
2022/09/07 03:30:35;;;;;;;3.20;3.00;;;;;;;14.80;100.00;65736.19;5118545;28;20224;-78
2022/09/07 03:33:02;;;;;;;4.20;2.90;;;;;;;14.80;100.00;65733.03;5119142;28;20189;-78
2022/09/07 03:35:28;;;;;;;3.23;3.23;;;;;;;14.79;100.00;65731.91;5119739;28;20664;-78
2022/09/07 03:37:55;;;;;;;3.47;3.47;;;;;;;14.84;100.00;65737.47;5118558;28;20241;-77
2022/09/07 03:40:21;;;;;;;4.97;4.67;;;;;;;14.79;100.00;65735.06;5118188;28;20189;-77
2022/09/07 03:42:49;;;;;;;4.97;4.60;;;;;;;14.80;100.00;65735.63;5119642;28;20185;-78
2022/09/07 03:45:15;;;;;;;5.87;4.03;;;;;;;;;;5119590;28;20181;-78
2022/09/07 03:47:42;;;;;;;8.33;5.60;;;;;;;14.76;100.00;65739.00;5118545;28;20627;-77
2022/09/07 03:50:08;;;;;;;6.67;5.77;;;;;;;14.76;100.00;65731.16;5119548;28;20185;-77
2022/09/07 03:52:35;;;;;;;6.00;5.60;;;;;;;14.77;100.00;65740.13;5119063;28;20223;-77
2022/09/07 03:55:02;;;;;;;6.47;5.97;;;;;;;14.79;100.00;65737.13;5118509;28;20213;-77
2022/09/07 03:57:29;;;;;;;6.73;6.10;;;;;;;14.60;100.00;65721.78;5117537;28;20219;-77
2022/09/07 03:59:55;;;;;;;6.57;6.17;;;;;;;14.76;100.00;65731.16;5117161;28;20611;-77
2022/09/07 04:02:21;;;;;;;5.97;5.67;;;;;;;14.67;100.00;65726.41;5117126;28;20257;-77
2022/09/07 04:04:48;;;;;;;6.17;5.80;;;;;;;14.59;100.00;65710.22;5116707;28;20216;-77
2022/09/07 04:07:14;;;;;;;6.97;6.10;;;;;;;14.53;100.00;65714.53;5117952;28;20241;-77
2022/09/07 04:09:41;;;;;;;4.90;4.70;;;;;;;14.56;100.00;65710.03;5117897;28;20185;-77
2022/09/07 04:12:07;;;;;;;5.20;5.00;;;;;;;14.56;100.00;65707.41;5118753;28;20220;-77
2022/09/07 04:14:34;;;;;;;5.37;5.17;;;;;;;;;;5117278;28;20254;-77
2022/09/07 04:17:00;;;;;;;5.73;5.20;;;;;;;14.55;100.00;65708.91;5118321;28;20221;-77
2022/09/07 04:19:28;;;;;;;5.20;4.90;;;;;;;14.60;100.00;65713.94;5118671;28;20201;-77
2022/09/07 04:21:55;;;;;;;5.30;4.90;;;;;;;14.49;100.00;65707.47;5117234;28;20209;-77
2022/09/07 04:24:21;;;;;;;5.50;5.30;;;;;;;14.50;100.00;65700.75;5116608;28;20659;-77
2022/09/07 04:26:48;;;;;;;5.27;5.03;;;;;;;14.55;100.00;65711.53;5116715;28;20232;-77
2022/09/07 04:29:14;;;;;;;5.90;5.67;;;;;;;14.57;100.00;65710.59;5116867;28;20213;-77
2022/09/07 04:31:40;;;;;;;5.97;5.53;;;;;;;14.47;100.00;65702.63;5116569;28;20212;-77
2022/09/07 04:34:07;;;;;;;11.93;5.57;;;;;;;14.43;100.00;65700.78;5115945;28;20220;-77
2022/09/07 04:36:33;;;;;;;5.20;4.87;;;;;;;14.44;100.00;65696.69;5115769;28;20189;-77
2022/09/07 04:39:02;;;;;;;5.50;5.20;;;;;;;14.48;100.00;65703.75;5115830;28;20545;-77
2022/09/07 04:41:30;;;;;;;5.63;5.03;;;;;;;14.42;100.00;65697.06;5117097;28;20614;-77
2022/09/07 04:43:59;;;;;;;5.13;4.90;;;;;;;14.46;100.00;65701.53;5099596;28;20189;-77
2022/09/07 04:46:32;;;;;;;5.23;4.93;;;;;;;14.52;100.00;65708.22;5116104;28;20223;-77
2022/09/07 04:49:01;;;;;;;6.60;6.07;;;;;;;14.46;100.00;65701.53;5116805;28;20201;-77
2022/09/07 04:51:30;;;;;;;5.20;4.90;;;;;;;14.50;100.00;65721.66;5117071;28;20238;-78
2022/09/07 04:53:58;;;;;;;5.80;5.50;;;;;;;14.46;100.00;65700.97;5116447;28;20234;-78
2022/09/07 04:56:25;;;;;;;6.10;5.90;;;;;;;14.49;100.00;65706.91;5116613;28;20651;-78
2022/09/07 04:58:51;;;;;;;5.63;5.37;;;;;;;14.35;100.00;65691.88;5115415;28;20241;-78
2022/09/07 05:01:21;;;;;;;6.37;6.07;;;;;;;14.48;100.00;65703.19;5116155;28;20204;-78
2022/09/07 05:03:48;;;;;;;5.60;5.30;;;;;;;14.48;100.00;65703.75;5116412;28;20280;-78
2022/09/07 05:06:17;;;;;;;5.50;5.30;;;;;;;14.47;100.00;65699.47;5115909;28;20212;-78
2022/09/07 05:08:46;;;;;;;5.70;5.40;;;;;;;14.46;100.00;65700.97;5116506;28;20202;-77
2022/09/07 05:11:14;;;;;;;4.93;4.83;;;;;;;14.46;100.00;65698.91;5116551;28;20212;-78
2022/09/07 05:13:41;;;;;;;5.97;5.67;;;;;;;14.53;100.00;65706.69;5117506;28;20219;-78
2022/09/07 05:16:11;;;;;;;5.47;5.23;;;;;;;;;;5117097;28;20234;-78
2022/09/07 05:18:38;;;;;;;5.20;5.07;;;;;;;14.56;100.00;65715.25;5097376;28;20216;-78
2022/09/07 05:21:12;;;;;;;5.73;5.40;;;;;;;14.55;100.00;65711.53;5116608;28;20209;-79
2022/09/07 05:23:39;;;;;;;4.57;4.37;;;;;;;14.53;100.00;65717.16;5118167;28;20635;-79
2022/09/07 05:26:06;;;;;;;5.10;5.00;;;;;;;14.54;100.00;65707.81;5118954;28;20193;-79
2022/09/07 05:28:34;;;;;;;5.17;5.03;;;;;;;14.55;100.00;65729.25;5116810;28;20221;-77
2022/09/07 05:31:09;;;;;;;6.07;5.87;;;;;;;14.60;100.00;65719.16;5116033;28;20743;-77
2022/09/07 05:33:52;;;;;;;6.50;6.20;;;;;;;14.60;100.00;65711.31;5116492;28;20174;-77
2022/09/07 05:36:39;;;;;;;7.30;6.83;;;;;;;14.62;100.00;65718.22;5115704;28;20203;-77
2022/09/07 05:39:07;;;;;;;6.07;5.97;;;;;;;14.71;100.00;65728.22;5114743;28;20197;-78
2022/09/07 05:41:33;;;;;;;7.97;6.47;;;;;;;14.69;100.00;65731.22;5116109;28;20639;-78
2022/09/07 05:44:00;;;;;;;6.20;5.80;;;;;;;14.64;100.00;65718.38;5115779;28;20185;-78
2022/09/07 05:46:47;;;;;;;7.57;7.07;;;;;;;14.67;100.00;65726.41;5115221;28;20203;-77
2022/09/07 05:49:13;;;;;;;8.47;7.70;;;;;;;14.64;100.00;65723.59;5114937;28;20242;-77
2022/09/07 05:51:40;;;;;;;7.00;5.90;;;;;;;14.70;100.00;65730.28;5114334;28;20217;-77
2022/09/07 05:54:06;;;;;;;7.03;6.57;;;;;;;14.75;100.00;65730.63;5114910;28;20189;-77
2022/09/07 05:56:34;;;;;;;7.97;7.20;;;;;;;14.71;100.00;65726.16;5114907;28;20228;-77
2022/09/07 05:59:01;;;;;;;8.23;7.63;;;;;;;14.69;100.00;65723.94;5113877;28;20308;-77
2022/09/07 06:01:27;;;;;;;8.37;7.87;;;;;;;14.76;100.00;65728.56;5111499;28;20654;-77
2022/09/07 06:03:53;;;;;;;7.70;7.10;;;;;;;;;;5104628;28;20231;-77
2022/09/07 06:06:20;;;;;;;9.33;8.50;;;;;;;14.80;100.00;65740.84;5110683;28;20220;-77
2022/09/07 06:08:49;;;;;;;9.00;8.30;;;;;;;14.64;100.00;65720.44;5112352;28;20232;-77
2022/09/07 06:11:19;;;;;;;11.53;9.93;;;;;;;14.82;100.00;65737.84;5112755;28;20200;-77
2022/09/07 06:13:46;;;;;;;18.57;11.03;;;;;;;14.75;100.00;65728.00;5113916;28;20219;-77
2022/09/07 06:16:13;;;;;;;15.67;10.27;;;;;;;14.76;100.00;65736.41;5110777;28;20216;-76
2022/09/07 06:18:43;;;;;;;11.30;10.17;;;;;;;14.81;100.00;65741.97;5112896;28;20564;-77
2022/09/07 06:21:14;;;;;;;12.73;10.23;;;;;;;14.88;100.00;65747.16;5112056;28;20217;-77
2022/09/07 06:23:42;;;;;;;11.23;9.70;;;;;;;14.86;100.00;65734.47;5107995;28;20215;-76
2022/09/07 06:26:10;;;;;;;11.50;10.17;;;;;;;14.87;100.00;65743.41;5112260;28;20235;-76
2022/09/07 06:28:42;;;;;;;14.67;10.60;;;;;;;14.90;100.00;65744.13;5112786;28;20609;-77
2022/09/07 06:31:12;;;;;;;15.07;10.93;;;;;;;;;;5107190;28;20231;-76
2022/09/07 06:33:40;;;;;;;15.53;12.33;;;;;;;14.96;100.00;65763.31;5112595;28;20217;-76
2022/09/07 06:36:14;;;;;;;16.77;11.00;;;;;;;15.03;100.00;65760.66;5112339;28;20232;-77
2022/09/07 06:38:42;;;;;;;16.20;11.03;;;;;;;14.95;100.00;65752.31;5113729;28;20739;-77
2022/09/07 06:41:14;;;;;;;22.40;12.50;;;;;;;14.97;100.00;65759.75;5113629;28;20224;-77
2022/09/07 06:44:01;;;;;;;18.40;11.43;;;;;;;15.02;100.00;65759.56;5112406;28;20208;-76
2022/09/07 06:46:27;;;;;;;16.13;11.73;;;;;;;15.06;100.00;65764.53;5111927;28;20674;-76
2022/09/07 06:49:13;;;;;;;19.80;13.07;;;;;;;15.10;100.00;65776.28;5111600;28;20189;-76
2022/09/07 06:51:40;;;;;;;17.00;13.73;;;;;;;15.17;100.00;65776.25;5115392;28;20655;-76
2022/09/07 06:54:06;;;;;;;15.13;11.50;;;;;;;;;;5117670;28;20208;-76
2022/09/07 06:56:54;;;;;;;13.20;11.37;;;;;;;15.28;100.00;65793.16;5116436;28;20197;-77
2022/09/07 06:59:20;;;;;;;12.10;10.73;;;;;;;15.27;100.00;65792.03;5113930;28;20709;-76
2022/09/07 07:01:47;;;;;;;13.60;10.53;;;;;;;15.31;100.00;65791.28;5107278;28;20189;-77
2022/09/07 07:04:13;;;;;;;12.30;10.90;;;;;;;15.37;100.00;65797.94;5110514;28;20231;-76
2022/09/07 07:06:39;;;;;;;11.30;9.90;;;;;;;;;;5113169;28;20723;-76
2022/09/07 07:09:09;;;;;;;12.10;10.00;;;;;;;15.47;100.00;65809.06;5116781;28;20208;-77
2022/09/07 07:11:36;;;;;;;9.97;9.13;;;;;;;15.66;100.00;65822.41;5110158;28;20602;-76
2022/09/07 07:14:03;;;;;;;10.10;9.27;;;;;;;15.63;100.00;65824.28;5115045;28;20620;-76
2022/09/07 07:16:29;;;;;;;11.17;10.27;;;;;;;15.64;100.00;65827.47;5112350;28;20232;-77
2022/09/07 07:18:56;;;;;;;10.10;8.83;;;;;;;15.60;100.00;65830.84;5117607;28;20205;-77
2022/09/07 07:21:23;;;;;;;9.73;8.93;;;;;;;15.68;100.00;65829.84;5099007;28;20194;-77
2022/09/07 07:23:51;;;;;;;8.80;8.30;;;;;;;15.71;100.00;65834.69;5117435;28;20226;-77
2022/09/07 07:26:20;;;;;;;10.47;9.53;;;;;;;15.78;100.00;65843.06;5117403;28;20213;-76
2022/09/07 07:28:49;;;;;;;10.20;9.27;;;;;;;15.86;100.00;65843.53;5116938;28;20212;-77
2022/09/07 07:31:24;;;;;;;10.27;9.27;;;;;;;15.96;100.00;65859.94;5117492;28;20177;-77
2022/09/07 07:33:52;;;;;;;10.10;9.40;;;;;;;15.94;100.00;65865.56;5117371;28;20302;-77
2022/09/07 07:36:21;;;;;;;8.47;7.87;;;;;;;15.96;100.00;65863.09;5117136;28;20184;-77
2022/09/07 07:38:49;;;;;;;9.67;8.50;;;;;;;16.14;100.00;65882.03;5116963;28;20216;-77
2022/09/07 07:41:28;;;;;;;9.90;8.97;;;;;;;16.11;100.00;65876.63;5114648;28;20276;-76
2022/09/07 07:44:14;;;;;;;8.87;8.20;;;;;;;16.18;100.00;65883.88;5109753;28;20668;-76
2022/09/07 07:46:41;;;;;;;9.63;8.77;;;;;;;16.29;100.00;65890.31;5094600;28;20232;-76
2022/09/07 07:49:08;;;;;;;8.43;7.83;;;;;;;16.31;100.00;65900.97;5113742;28;20184;-76
2022/09/07 07:51:34;;;;;;;8.97;8.27;;;;;;;16.35;100.00;65910.66;5115191;28;20189;-75
2022/09/07 07:54:21;;;;;;;9.03;8.20;;;;;;;;;;5115574;28;20194;-75
2022/09/07 07:56:48;;;;;;;9.60;8.80;;;;;;;;;;5116676;28;20670;-75
2022/09/07 07:59:14;;;;;;;10.27;9.47;;;;;;;;;;5115395;28;20205;-76
2022/09/07 08:01:42;;;;;;;10.07;9.07;;;;;;;16.48;100.00;65922.53;5115031;28;20246;-76
2022/09/07 08:04:09;;;;;;;9.27;8.67;;;;;;;16.50;100.00;65918.97;5115181;28;20235;-75
2022/09/07 08:06:36;;;;;;;8.47;8.20;;;;;;;;;;5114662;28;20679;-76
2022/09/07 08:09:02;;;;;;;8.27;7.60;;;;;;;16.47;100.00;65920.88;5114436;28;20177;-77
2022/09/07 08:11:30;;;;;;;8.33;7.57;;;;;;;16.48;100.00;65919.34;5114894;28;20209;-77
2022/09/07 08:13:58;;;;;;;7.93;7.53;;;;;;;16.44;100.00;65914.91;5116119;28;20185;-77
2022/09/07 08:16:25;;;;;;;10.10;7.90;;;;;;;;;;5113364;28;20201;-76
2022/09/07 08:18:52;;;;;;;9.20;8.57;;;;;;;16.64;100.00;65934.00;5114734;28;20261;-76
2022/09/07 08:21:18;;;;;;;9.90;9.13;;;;;;;16.57;100.00;65929.38;5115972;28;20228;-76
2022/09/07 08:23:45;;;;;;;10.13;9.33;;;;;;;16.57;100.00;65926.75;5115219;28;20199;-75
2022/09/07 08:26:11;;;;;;;9.73;9.17;;;;;;;16.72;100.00;65946.13;5114447;28;20193;-76
2022/09/07 08:28:40;;;;;;;10.87;9.80;;;;;;;16.80;100.00;65953.94;5112885;28;20701;-75
2022/09/07 08:31:09;;;;;;;10.20;9.53;;;;;;;16.72;100.00;65946.13;5114636;28;20194;-76
2022/09/07 08:33:37;;;;;;;10.07;9.23;;;;;;;16.78;100.00;65954.88;5114506;28;20199;-77
2022/09/07 08:36:04;;;;;;;9.97;9.07;;;;;;;;;;5111955;28;20185;-76
2022/09/07 08:38:32;;;;;;;9.37;8.87;;;;;;;16.69;100.00;65939.56;5112889;28;20221;-75
2022/09/07 08:40:59;;;;;;;10.60;9.60;;;;;;;;;;5114445;28;20204;-76
2022/09/07 08:43:28;;;;;;;10.73;9.57;;;;;;;;;;5113510;28;20655;-75
2022/09/07 08:46:02;;;;;;;8.60;8.17;;;;;;;;;;5115191;28;20193;-76
2022/09/07 08:48:33;;;;;;;9.67;8.77;;;;;;;16.56;100.00;65938.75;5114694;28;20213;-76
2022/09/07 08:51:15;;;;;;;9.10;8.30;;;;;;;16.54;100.00;65926.03;5115481;28;20186;-76
2022/09/07 08:53:48;;;;;;;9.83;9.10;;;;;;;16.43;100.00;65913.78;5112625;28;20187;-76
2022/09/07 08:56:27;;;;;;;9.00;8.50;;;;;;;16.37;100.00;65904.50;5113948;28;20193;-77
2022/09/07 08:59:01;;;;;;;9.70;8.93;;;;;;;16.38;100.00;65908.78;5111658;28;20262;-77
2022/09/07 09:01:34;;;;;;;13.77;9.13;;;;;;;;;;5114432;28;20200;-77
2022/09/07 09:04:02;;;;;;;10.33;8.83;;;;;;;;;;5113263;28;20193;-77
2022/09/07 09:06:52;;;;;;;9.47;8.33;;;;;;;16.22;100.00;65893.56;5113945;28;20188;-77
2022/09/07 09:09:34;;;;;;;8.27;7.87;;;;;;;16.23;100.00;65890.00;5113808;28;20186;-77
2022/09/07 09:12:32;;;;;;;9.37;8.40;;;;;;;16.20;100.00;65894.50;5114207;28;20216;-77
2022/09/07 09:15:03;;;;;;;7.63;7.20;;;;;;;;;;5112286;28;20252;-77
2022/09/07 09:17:39;;;;;;;18.37;8.03;;;;;;;16.34;100.00;65901.69;5113674;28;20244;-77
2022/09/07 09:20:29;;;;;;;10.67;9.63;;;;;;;16.35;100.00;65910.09;5113768;28;20250;-77
2022/09/07 09:23:01;;;;;;;10.27;9.23;;;;;;;16.41;100.00;65908.94;5113673;28;20539;-77
2022/09/07 09:25:32;;;;;;;10.70;9.60;;;;;;;;;;5115705;28;20208;-77
2022/09/07 09:27:59;;;;;;;8.80;8.30;;;;;;;;;;5114598;28;20216;-77
2022/09/07 09:30:26;;;;;;;10.43;8.63;;;;;;;16.35;100.00;65902.25;5114329;28;20586;-78
2022/09/07 09:33:26;;;;;;;12.00;9.00;;;;;;;16.42;100.00;65910.03;5113884;28;20224;-77
2022/09/07 09:35:58;;;;;;;10.57;9.37;;;;;;;16.47;100.00;65918.25;5060103;28;20212;-77
2022/09/07 09:38:27;;;;;;;9.63;9.13;;;;;;;;;;5113531;28;20220;-77
2022/09/07 09:40:56;;;;;;;10.57;9.80;;;;;;;16.51;100.00;65922.72;5110667;28;20216;-77
2022/09/07 09:43:37;;;;;;;9.30;8.80;;;;;;;16.47;100.00;65910.94;5110404;28;20193;-77
2022/09/07 09:46:14;;;;;;;15.50;14.10;;;;;;;;;;5112112;28;20829;-77
2022/09/07 09:48:40;;;;;;;16.07;14.50;;;;;;;;;;5107277;28;20223;-76
2022/09/07 09:51:07;;;;;;;15.70;14.07;;;;;;;;;;5114696;28;20280;-77
2022/09/07 09:53:58;;;;;;;13.70;12.30;;;;;;;16.77;100.00;65951.69;5109528;28;20578;-76
2022/09/07 09:56:38;;;;;;;14.20;12.40;;;;;;;;;;5114491;28;20181;-77
2022/09/07 09:59:31;;;;;;;12.57;11.40;;;;;;;16.71;100.00;65944.44;5110472;28;20208;-76
2022/09/07 10:02:30;;;;;;;12.53;11.37;;;;;;;16.78;100.00;65952.25;5097480;28;20193;-76
2022/09/07 10:05:38;;;;;;;14.10;12.90;;;;;;;16.85;100.00;65957.44;5110304;28;20193;-77
2022/09/07 10:08:20;;;;;;;16.70;11.97;;;;;;;16.75;100.00;65946.28;5111724;28;20216;-77
2022/09/07 10:10:59;;;;;;;14.27;12.83;;;;;;;16.84;100.00;65961.56;5114002;28;20193;-77
2022/09/07 10:13:42;;;;;;;10.70;10.00;;;;;;;16.70;100.00;65943.34;5109587;28;20193;-76
2022/09/07 10:16:10;;;;;;;11.13;10.50;;;;;;;16.61;100.00;65933.28;5109221;28;20181;-77
2022/09/07 10:18:39;;;;;;;11.57;10.67;;;;;;;16.67;100.00;65937.91;5113870;28;20279;-77
2022/09/07 10:21:27;;;;;;;15.67;12.57;;;;;;;16.68;100.00;65933.78;5114187;28;20188;-77
2022/09/07 10:24:13;;;;;;;18.83;11.43;;;;;;;16.72;100.00;65943.50;5111745;28;20208;-76
2022/09/07 10:26:42;;;;;;;20.20;11.83;;;;;;;;;;5110343;28;20196;-76
2022/09/07 10:29:15;;;;;;;14.20;12.77;;;;;;;16.80;100.00;65951.31;5109750;28;20200;-76
2022/09/07 10:32:17;;;;;;;16.47;14.13;;;;;;;16.91;100.00;65963.56;5114922;28;20184;-77
2022/09/07 10:34:49;;;;;;;14.50;13.07;;;;;;;;;;5114227;28;20200;-76
2022/09/07 10:37:24;;;;;;;27.33;14.27;;;;;;;;;;5112116;28;20220;-76
2022/09/07 10:39:56;;;;;;;19.43;14.57;;;;;;;;;;5114454;28;20752;-77
2022/09/07 10:42:35;;;;;;;17.90;16.00;;;;;;;17.31;100.00;66013.41;5113417;28;20627;-76
2022/09/07 10:45:04;;;;;;;21.23;15.00;;;;;;;;;;5105355;28;20638;-76
2022/09/07 10:47:45;;;;;;;20.67;14.17;;;;;;;17.44;100.00;66024.16;5112916;28;20224;-76
2022/09/07 10:50:23;;;;;;;14.70;13.47;;;;;;;;;;5106254;28;20258;-76
2022/09/07 10:53:02;;;;;;;19.67;13.93;;;;;;;17.56;100.00;66034.91;5109252;28;20181;-76
2022/09/07 10:55:57;;;;;;;12.10;11.30;;;;;;;;;;5113608;28;20189;-76
2022/09/07 10:58:45;;;;;;;13.27;12.30;;;;;;;17.76;100.00;66056.69;5113586;28;20215;-76
2022/09/07 11:02:05;;;;;;;14.67;12.93;;;;;;;17.68;100.00;66053.56;5110325;28;20192;-76
2022/09/07 11:04:53;;;;;;;14.73;13.70;;;;;;;17.76;100.00;66052.00;5076182;28;20216;-76
2022/09/07 11:07:30;;;;;;;14.97;13.83;;;;;;;;;;5111681;28;20228;-75
2022/09/07 11:10:09;;;;;;;14.63;13.63;;;;;;;;;;5111541;28;20192;-75
2022/09/07 11:12:40;;;;;;;13.33;12.63;;;;;;;17.84;100.00;66068.25;5109685;28;20196;-75
2022/09/07 11:15:17;;;;;;;13.43;12.60;;;;;;;18.02;100.00;66085.16;5110061;28;20189;-74
2022/09/07 11:17:54;;;;;;;15.00;13.40;;;;;;;17.97;100.00;66071.69;5109258;28;20205;-76
2022/09/07 11:20:23;;;;;;;13.93;13.07;;;;;;;;;;5113695;28;20665;-76
2022/09/07 11:22:58;;;;;;;15.20;13.80;;;;;;;18.05;100.00;66091.09;5113812;28;20193;-76
2022/09/07 11:25:42;;;;;;;13.60;12.60;;;;;;;18.07;100.00;66091.28;5111716;28;20691;-74
2022/09/07 11:28:08;;;;;;;17.43;15.87;;;;;;;18.05;100.00;66091.09;5104287;28;20220;-75
2022/09/07 11:30:42;;;;;;;15.93;14.27;;;;;;;18.03;100.00;66086.81;5107737;28;20189;-75
2022/09/07 11:33:44;;;;;;;16.93;15.53;;;;;;;;;;5107004;28;20181;-76
2022/09/07 11:36:39;;;;;;;17.73;16.20;;;;;;;18.19;100.00;66103.53;5011247;28;20308;-76
2022/09/07 11:39:13;;;;;;;15.40;14.20;;;;;;;18.15;100.00;66094.41;5113457;28;20197;-76
2022/09/07 11:41:44;;;;;;;16.27;14.73;;;;;;;18.12;100.00;66096.28;5112143;28;20655;-75
2022/09/07 11:44:23;;;;;;;16.53;15.00;;;;;;;18.20;100.00;66104.66;5108258;28;20519;-74
2022/09/07 11:46:54;;;;;;;13.30;12.40;;;;;;;18.31;100.00;66116.94;5096352;28;20193;-75
2022/09/07 11:49:23;;;;;;;13.53;12.50;;;;;;;18.46;100.00;66133.13;5096625;28;20182;-75
2022/09/07 11:51:52;;;;;;;12.97;12.17;;;;;;;18.60;100.00;66151.38;5096424;28;20185;-75
2022/09/07 11:54:19;;;;;;;13.53;12.10;;;;;;;;;;5096307;28;20185;-76
2022/09/07 11:56:49;;;;;;;16.03;14.73;;;;;;;;;;5098714;28;21965;-75
2022/09/07 11:59:35;;;;;;;14.67;13.37;;;;;;;18.60;100.00;66148.75;5112824;28;20192;-75
2022/09/07 12:02:10;;;;;;;13.23;12.33;;;;;;;18.53;100.00;66143.56;5115851;28;20681;-76
2022/09/07 12:04:39;;;;;;;14.23;13.33;;;;;;;18.50;100.00;66140.75;5116666;28;20517;-76
2022/09/07 12:07:43;;;;;;;12.87;12.07;;;;;;;18.63;100.00;66152.66;5116265;28;20240;-76
2022/09/07 12:10:58;;;;;;;13.67;12.57;;;;;;;18.66;100.00;66158.09;5116691;28;20545;-76
2022/09/07 12:13:25;;;;;;;12.43;11.67;;;;;;;;;;5074083;28;20220;-75